sensor_id;sensor_type;location;lat;lon;timestamp;pressure;altitude;pressure_sealevel;temperature;humidity
21902;BME280;11115;46.038;14.612;2023-12-07T00:00:52;98408.97;;;1.65;100.00
21902;BME280;11115;46.038;14.612;2023-12-07T00:03:20;98410.75;;;1.76;100.00
21902;BME280;11115;46.038;14.612;2023-12-07T00:05:48;98405.91;;;1.61;100.00
21902;BME280;11115;46.038;14.612;2023-12-07T00:08:16;98383.84;;;1.63;100.00
21902;BME280;11115;46.038;14.612;2023-12-07T00:10:44;98395.06;;;1.66;100.00
21902;BME280;11115;46.038;14.612;2023-12-07T00:13:13;98386.28;;;1.59;100.00
21902;BME280;11115;46.038;14.612;2023-12-07T00:15:41;98327.94;;;1.16;100.00
21902;BME280;11115;46.038;14.612;2023-12-07T00:18:09;98365.94;;;1.28;100.00
21902;BME280;11115;46.038;14.612;2023-12-07T00:20:37;98412.63;;;1.53;100.00
21902;BME280;11115;46.038;14.612;2023-12-07T00:23:05;98413.69;;;1.52;100.00
21902;BME280;11115;46.038;14.612;2023-12-07T00:25:33;98414.72;;;1.46;100.00
21902;BME280;11115;46.038;14.612;2023-12-07T00:28:01;98381.91;;;1.19;100.00
21902;BME280;11115;46.038;14.612;2023-12-07T00:30:30;98415.13;;;1.55;100.00
21902;BME280;11115;46.038;14.612;2023-12-07T00:32:58;98406.84;;;1.50;100.00
21902;BME280;11115;46.038;14.612;2023-12-07T00:35:26;98418.25;;;1.47;100.00
21902;BME280;11115;46.038;14.612;2023-12-07T00:37:56;98422.94;;;1.51;100.00
21902;BME280;11115;46.038;14.612;2023-12-07T00:40:24;98396.72;;;1.45;100.00
21902;BME280;11115;46.038;14.612;2023-12-07T00:42:52;98403.97;;;1.57;100.00
21902;BME280;11115;46.038;14.612;2023-12-07T00:45:20;98432.47;;;1.71;100.00
21902;BME280;11115;46.038;14.612;2023-12-07T00:47:48;98425.38;;;1.70;100.00
21902;BME280;11115;46.038;14.612;2023-12-07T00:50:17;98406.34;;;1.53;100.00
21902;BME280;11115;46.038;14.612;2023-12-07T00:52:45;98417.13;;;1.65;100.00
21902;BME280;11115;46.038;14.612;2023-12-07T00:55:15;98412.50;;;1.65;100.00
21902;BME280;11115;46.038;14.612;2023-12-07T00:57:43;98436.13;;;1.76;100.00
21902;BME280;11115;46.038;14.612;2023-12-07T01:00:11;98435.16;;;1.66;100.00
21902;BME280;11115;46.038;14.612;2023-12-07T01:02:39;98419.97;;;1.53;100.00
21902;BME280;11115;46.038;14.612;2023-12-07T01:05:08;98417.47;;;1.68;100.00
21902;BME280;11115;46.038;14.612;2023-12-07T01:07:37;98400.16;;;1.58;100.00
21902;BME280;11115;46.038;14.612;2023-12-07T01:10:05;98437.50;;;1.79;100.00
21902;BME280;11115;46.038;14.612;2023-12-07T01:12:34;98432.16;;;1.67;100.00
21902;BME280;11115;46.038;14.612;2023-12-07T01:15:03;98334.25;;;1.00;100.00
21902;BME280;11115;46.038;14.612;2023-12-07T01:17:32;98434.00;;;1.62;100.00
21902;BME280;11115;46.038;14.612;2023-12-07T01:20:00;98435.75;;;1.51;100.00
21902;BME280;11115;46.038;14.612;2023-12-07T01:22:30;98405.09;;;1.39;100.00
21902;BME280;11115;46.038;14.612;2023-12-07T01:24:58;98432.94;;;1.63;100.00
21902;BME280;11115;46.038;14.612;2023-12-07T01:27:27;98424.59;;;1.52;100.00
21902;BME280;11115;46.038;14.612;2023-12-07T01:29:55;98415.78;;;1.45;100.00
21902;BME280;11115;46.038;14.612;2023-12-07T01:32:23;98414.00;;;1.34;100.00
21902;BME280;11115;46.038;14.612;2023-12-07T01:34:51;98419.78;;;1.38;100.00
21902;BME280;11115;46.038;14.612;2023-12-07T01:37:20;98396.44;;;1.25;100.00
21902;BME280;11115;46.038;14.612;2023-12-07T01:39:48;98429.06;;;1.59;100.00
21902;BME280;11115;46.038;14.612;2023-12-07T01:42:16;98431.28;;;1.62;100.00
21902;BME280;11115;46.038;14.612;2023-12-07T01:44:44;98440.47;;;1.56;100.00
21902;BME280;11115;46.038;14.612;2023-12-07T01:47:13;98443.84;;;1.63;100.00
21902;BME280;11115;46.038;14.612;2023-12-07T01:49:42;98411.09;;;1.41;100.00
21902;BME280;11115;46.038;14.612;2023-12-07T01:52:10;98379.75;;;1.21;100.00
21902;BME280;11115;46.038;14.612;2023-12-07T01:54:39;98415.59;;;1.52;100.00
21902;BME280;11115;46.038;14.612;2023-12-07T01:57:07;98448.28;;;1.69;100.00
21902;BME280;11115;46.038;14.612;2023-12-07T01:59:35;98430.72;;;1.60;100.00
21902;BME280;11115;46.038;14.612;2023-12-07T02:02:03;98435.16;;;1.66;100.00
21902;BME280;11115;46.038;14.612;2023-12-07T02:04:31;98421.41;;;1.56;100.00
21902;BME280;11115;46.038;14.612;2023-12-07T02:07:01;98445.63;;;1.74;100.00
21902;BME280;11115;46.038;14.612;2023-12-07T02:09:30;98450.50;;;1.72;100.00
21902;BME280;11115;46.038;14.612;2023-12-07T02:11:59;98453.81;;;1.74;100.00
21902;BME280;11115;46.038;14.612;2023-12-07T02:14:27;98454.03;;;1.72;100.00
21902;BME280;11115;46.038;14.612;2023-12-07T02:17:03;98447.44;;;1.68;100.00
21902;BME280;11115;46.038;14.612;2023-12-07T02:22:25;98439.16;;;1.58;100.00
21902;BME280;11115;46.038;14.612;2023-12-07T02:25:04;98449.22;;;1.58;100.00
21902;BME280;11115;46.038;14.612;2023-12-07T02:27:41;98456.91;;;1.61;100.00
21902;BME280;11115;46.038;14.612;2023-12-07T02:30:11;98464.06;;;1.67;100.00
21902;BME280;11115;46.038;14.612;2023-12-07T02:32:42;98457.97;;;1.60;100.00
21902;BME280;11115;46.038;14.612;2023-12-07T02:35:12;98426.19;;;1.48;100.00
21902;BME280;11115;46.038;14.612;2023-12-07T02:37:43;98457.84;;;1.71;100.00
21902;BME280;11115;46.038;14.612;2023-12-07T02:40:13;98458.81;;;1.82;100.00
21902;BME280;11115;46.038;14.612;2023-12-07T02:42:42;98388.41;;;1.35;100.00
21902;BME280;11115;46.038;14.612;2023-12-07T02:45:11;98464.78;;;1.79;100.00
21902;BME280;11115;46.038;14.612;2023-12-07T02:47:39;98461.50;;;1.77;100.00
21902;BME280;11115;46.038;14.612;2023-12-07T02:50:10;98462.75;;;1.69;100.00
21902;BME280;11115;46.038;14.612;2023-12-07T02:52:38;98471.13;;;1.85;100.00
21902;BME280;11115;46.038;14.612;2023-12-07T02:55:07;98474.44;;;1.87;100.00
21902;BME280;11115;46.038;14.612;2023-12-07T02:57:36;98457.03;;;1.71;100.00
21902;BME280;11115;46.038;14.612;2023-12-07T03:00:05;98451.00;;;1.69;100.00
21902;BME280;11115;46.038;14.612;2023-12-07T03:02:35;98471.84;;;1.75;100.00
21902;BME280;11115;46.038;14.612;2023-12-07T03:05:04;98432.53;;;1.54;100.00
21902;BME280;11115;46.038;14.612;2023-12-07T03:07:34;98466.13;;;1.76;100.00
21902;BME280;11115;46.038;14.612;2023-12-07T03:10:02;98479.56;;;1.83;100.00
21902;BME280;11115;46.038;14.612;2023-12-07T03:12:31;98484.50;;;1.86;100.00
21902;BME280;11115;46.038;14.612;2023-12-07T03:14:59;98482.66;;;1.92;100.00
21902;BME280;11115;46.038;14.612;2023-12-07T03:17:27;98454.66;;;1.74;100.00
21902;BME280;11115;46.038;14.612;2023-12-07T03:19:55;98483.75;;;1.91;100.00
21902;BME280;11115;46.038;14.612;2023-12-07T03:22:23;98490.94;;;1.97;100.00
21902;BME280;11115;46.038;14.612;2023-12-07T03:24:53;98462.06;;;1.79;100.00
21902;BME280;11115;46.038;14.612;2023-12-07T03:27:21;98471.94;;;1.85;100.00
21902;BME280;11115;46.038;14.612;2023-12-07T03:29:49;98496.41;;;1.97;100.00
21902;BME280;11115;46.038;14.612;2023-12-07T03:32:18;98452.59;;;1.65;100.00
21902;BME280;11115;46.038;14.612;2023-12-07T03:34:46;98512.06;;;2.06;100.00
21902;BME280;11115;46.038;14.612;2023-12-07T03:37:14;98501.34;;;2.00;100.00
21902;BME280;11115;46.038;14.612;2023-12-07T03:39:42;98507.13;;;2.03;100.00
21902;BME280;11115;46.038;14.612;2023-12-07T03:42:10;98515.19;;;1.93;100.00
21902;BME280;11115;46.038;14.612;2023-12-07T03:44:58;98511.94;;;1.96;100.00
21902;BME280;11115;46.038;14.612;2023-12-07T03:47:27;98503.53;;;1.81;100.00
21902;BME280;11115;46.038;14.612;2023-12-07T03:49:55;98508.88;;;1.93;100.00
21902;BME280;11115;46.038;14.612;2023-12-07T03:52:23;98519.88;;;1.98;100.00
21902;BME280;11115;46.038;14.612;2023-12-07T03:54:52;98498.97;;;1.87;100.00
21902;BME280;11115;46.038;14.612;2023-12-07T03:57:20;98512.63;;;2.08;100.00
21902;BME280;11115;46.038;14.612;2023-12-07T03:59:48;98529.50;;;2.05;100.00
21902;BME280;11115;46.038;14.612;2023-12-07T04:02:16;98456.66;;;1.62;100.00
21902;BME280;11115;46.038;14.612;2023-12-07T04:04:44;98533.63;;;2.08;100.00
21902;BME280;11115;46.038;14.612;2023-12-07T04:07:12;98526.59;;;2.12;100.00
21902;BME280;11115;46.038;14.612;2023-12-07T04:09:41;98519.09;;;2.02;100.00
21902;BME280;11115;46.038;14.612;2023-12-07T04:12:09;98497.47;;;1.96;100.00
21902;BME280;11115;46.038;14.612;2023-12-07T04:14:37;98538.59;;;2.11;100.00
21902;BME280;11115;46.038;14.612;2023-12-07T04:17:05;98476.28;;;1.81;100.00
21902;BME280;11115;46.038;14.612;2023-12-07T04:19:34;98516.44;;;2.07;100.00
21902;BME280;11115;46.038;14.612;2023-12-07T04:22:02;98541.81;;;2.08;100.00
21902;BME280;11115;46.038;14.612;2023-12-07T04:24:30;98542.97;;;2.12;100.00
21902;BME280;11115;46.038;14.612;2023-12-07T04:26:58;98526.47;;;2.02;100.00
21902;BME280;11115;46.038;14.612;2023-12-07T04:29:26;98549.91;;;2.20;100.00
21902;BME280;11115;46.038;14.612;2023-12-07T04:31:54;98556.88;;;2.10;100.00
21902;BME280;11115;46.038;14.612;2023-12-07T04:34:22;98557.47;;;2.12;100.00
21902;BME280;11115;46.038;14.612;2023-12-07T04:36:50;98532.94;;;1.96;100.00
21902;BME280;11115;46.038;14.612;2023-12-07T04:39:18;98560.59;;;2.04;100.00
21902;BME280;11115;46.038;14.612;2023-12-07T04:41:46;98553.53;;;1.87;100.00
21902;BME280;11115;46.038;14.612;2023-12-07T04:44:15;98555.34;;;1.98;100.00
21902;BME280;11115;46.038;14.612;2023-12-07T04:46:43;98533.19;;;1.94;100.00
21902;BME280;11115;46.038;14.612;2023-12-07T04:49:12;98555.94;;;2.22;100.00
21902;BME280;11115;46.038;14.612;2023-12-07T04:51:40;98555.13;;;2.21;100.00
21902;BME280;11115;46.038;14.612;2023-12-07T04:54:09;98541.91;;;2.13;100.00
21902;BME280;11115;46.038;14.612;2023-12-07T04:56:45;98557.53;;;2.18;100.00
21902;BME280;11115;46.038;14.612;2023-12-07T04:59:13;98565.97;;;2.16;100.00
21902;BME280;11115;46.038;14.612;2023-12-07T05:01:42;98567.38;;;2.19;100.00
21902;BME280;11115;46.038;14.612;2023-12-07T05:04:11;98484.16;;;1.61;100.00
21902;BME280;11115;46.038;14.612;2023-12-07T05:06:39;98572.16;;;2.11;100.00
21902;BME280;11115;46.038;14.612;2023-12-07T05:09:07;98577.97;;;2.15;100.00
21902;BME280;11115;46.038;14.612;2023-12-07T05:11:37;98584.50;;;2.14;100.00
21902;BME280;11115;46.038;14.612;2023-12-07T05:14:05;98587.72;;;2.11;100.00
21902;BME280;11115;46.038;14.612;2023-12-07T05:16:34;98588.53;;;2.11;100.00
21902;BME280;11115;46.038;14.612;2023-12-07T05:19:02;98593.00;;;2.18;100.00
21902;BME280;11115;46.038;14.612;2023-12-07T05:21:30;98594.25;;;2.10;100.00
21902;BME280;11115;46.038;14.612;2023-12-07T05:23:58;98493.19;;;1.61;100.00
21902;BME280;11115;46.038;14.612;2023-12-07T05:26:26;98573.06;;;2.17;100.00
21902;BME280;11115;46.038;14.612;2023-12-07T05:28:56;98593.06;;;2.23;100.00
21902;BME280;11115;46.038;14.612;2023-12-07T05:31:25;98602.09;;;2.23;100.00
21902;BME280;11115;46.038;14.612;2023-12-07T05:33:53;98592.44;;;2.16;100.00
21902;BME280;11115;46.038;14.612;2023-12-07T05:36:22;98583.00;;;2.06;100.00
21902;BME280;11115;46.038;14.612;2023-12-07T05:38:50;98563.22;;;1.94;100.00
21902;BME280;11115;46.038;14.612;2023-12-07T05:41:18;98585.16;;;2.04;100.00
21902;BME280;11115;46.038;14.612;2023-12-07T05:43:46;98600.38;;;2.17;100.00
21902;BME280;11115;46.038;14.612;2023-12-07T05:46:15;98588.22;;;2.08;100.00
21902;BME280;11115;46.038;14.612;2023-12-07T05:48:43;98605.06;;;2.22;100.00
21902;BME280;11115;46.038;14.612;2023-12-07T05:51:13;98570.06;;;1.97;100.00
21902;BME280;11115;46.038;14.612;2023-12-07T05:53:41;98605.88;;;2.22;100.00
21902;BME280;11115;46.038;14.612;2023-12-07T05:56:10;98577.44;;;1.96;100.00
21902;BME280;11115;46.038;14.612;2023-12-07T05:58:38;98611.53;;;2.16;100.00
21902;BME280;11115;46.038;14.612;2023-12-07T06:01:06;98553.53;;;1.87;100.00
21902;BME280;11115;46.038;14.612;2023-12-07T06:03:35;98613.56;;;2.25;100.00
21902;BME280;11115;46.038;14.612;2023-12-07T06:06:03;98602.03;;;2.18;100.00
21902;BME280;11115;46.038;14.612;2023-12-07T06:08:31;98606.47;;;2.24;100.00
21902;BME280;11115;46.038;14.612;2023-12-07T06:10:59;98618.41;;;2.18;100.00
21902;BME280;11115;46.038;14.612;2023-12-07T06:13:28;98617.38;;;2.24;100.00
21902;BME280;11115;46.038;14.612;2023-12-07T06:15:56;98617.88;;;2.21;100.00
21902;BME280;11115;46.038;14.612;2023-12-07T06:18:25;98559.94;;;1.75;100.00
21902;BME280;11115;46.038;14.612;2023-12-07T06:20:53;98622.72;;;2.14;100.00
21902;BME280;11115;46.038;14.612;2023-12-07T06:23:21;98612.78;;;2.08;100.00
21902;BME280;11115;46.038;14.612;2023-12-07T06:25:49;98625.56;;;2.24;100.00
21902;BME280;11115;46.038;14.612;2023-12-07T06:28:17;98619.88;;;2.09;100.00
21902;BME280;11115;46.038;14.612;2023-12-07T06:30:46;98617.16;;;2.09;100.00
21902;BME280;11115;46.038;14.612;2023-12-07T06:33:14;98633.63;;;2.14;100.00
21902;BME280;11115;46.038;14.612;2023-12-07T06:35:42;98640.91;;;2.08;100.00
21902;BME280;11115;46.038;14.612;2023-12-07T06:38:10;98560.84;;;1.64;100.00
21902;BME280;11115;46.038;14.612;2023-12-07T06:40:38;98636.69;;;2.18;100.00
21902;BME280;11115;46.038;14.612;2023-12-07T06:43:06;98641.88;;;2.19;100.00
21902;BME280;11115;46.038;14.612;2023-12-07T06:45:34;98645.84;;;2.11;100.00
21902;BME280;11115;46.038;14.612;2023-12-07T06:48:03;98642.28;;;2.11;100.00
21902;BME280;11115;46.038;14.612;2023-12-07T06:50:31;98656.09;;;2.21;100.00
21902;BME280;11115;46.038;14.612;2023-12-07T06:52:59;98656.16;;;2.26;100.00
21902;BME280;11115;46.038;14.612;2023-12-07T06:55:27;98654.97;;;2.17;100.00
21902;BME280;11115;46.038;14.612;2023-12-07T06:57:56;98663.72;;;2.19;100.00
21902;BME280;11115;46.038;14.612;2023-12-07T07:00:24;98637.59;;;2.06;100.00
21902;BME280;11115;46.038;14.612;2023-12-07T07:02:52;98642.72;;;2.03;100.00
21902;BME280;11115;46.038;14.612;2023-12-07T07:05:20;98660.31;;;2.12;100.00
21902;BME280;11115;46.038;14.612;2023-12-07T07:07:48;98648.75;;;2.05;100.00
21902;BME280;11115;46.038;14.612;2023-12-07T07:10:18;98662.72;;;2.08;100.00
21902;BME280;11115;46.038;14.612;2023-12-07T07:12:46;98659.28;;;2.13;100.00
21902;BME280;11115;46.038;14.612;2023-12-07T07:15:14;98655.53;;;2.19;100.00
21902;BME280;11115;46.038;14.612;2023-12-07T07:17:42;98668.41;;;2.24;100.00
21902;BME280;11115;46.038;14.612;2023-12-07T07:20:11;98668.16;;;2.25;100.00
21902;BME280;11115;46.038;14.612;2023-12-07T07:22:39;98600.66;;;1.82;100.00
21902;BME280;11115;46.038;14.612;2023-12-07T07:25:08;98672.63;;;2.31;100.00
21902;BME280;11115;46.038;14.612;2023-12-07T07:27:36;98660.03;;;2.30;100.00
21902;BME280;11115;46.038;14.612;2023-12-07T07:30:06;98642.72;;;2.03;100.00
21902;BME280;11115;46.038;14.612;2023-12-07T07:32:35;98666.13;;;2.16;100.00
21902;BME280;11115;46.038;14.612;2023-12-07T07:35:03;98661.75;;;2.15;100.00
21902;BME280;11115;46.038;14.612;2023-12-07T07:37:31;98675.72;;;2.18;100.00
21902;BME280;11115;46.038;14.612;2023-12-07T07:39:59;98670.50;;;2.17;100.00
21902;BME280;11115;46.038;14.612;2023-12-07T07:42:33;98679.91;;;2.26;100.00
21902;BME280;11115;46.038;14.612;2023-12-07T07:45:02;98673.63;;;2.25;100.00
21902;BME280;11115;46.038;14.612;2023-12-07T07:47:30;98657.25;;;2.25;100.00
21902;BME280;11115;46.038;14.612;2023-12-07T07:49:59;98672.03;;;2.29;100.00
21902;BME280;11115;46.038;14.612;2023-12-07T07:52:32;98604.88;;;1.90;100.00
21902;BME280;11115;46.038;14.612;2023-12-07T07:55:03;98668.66;;;2.22;100.00
21902;BME280;11115;46.038;14.612;2023-12-07T07:57:31;98690.69;;;2.32;100.00
21902;BME280;11115;46.038;14.612;2023-12-07T07:59:59;98683.53;;;2.31;100.00
21902;BME280;11115;46.038;14.612;2023-12-07T08:02:30;98690.44;;;2.34;100.00
21902;BME280;11115;46.038;14.612;2023-12-07T08:04:58;98609.84;;;1.76;100.00
21902;BME280;11115;46.038;14.612;2023-12-07T08:07:26;98664.72;;;2.13;100.00
21902;BME280;11115;46.038;14.612;2023-12-07T08:09:54;98668.28;;;2.13;100.00
21902;BME280;11115;46.038;14.612;2023-12-07T08:12:22;98691.56;;;2.38;100.00
21902;BME280;11115;46.038;14.612;2023-12-07T08:14:50;98694.47;;;2.31;100.00
21902;BME280;11115;46.038;14.612;2023-12-07T08:17:19;98686.63;;;2.35;100.00
21902;BME280;11115;46.038;14.612;2023-12-07T08:19:48;98669.56;;;2.28;100.00
21902;BME280;11115;46.038;14.612;2023-12-07T08:22:16;98675.34;;;2.31;100.00
21902;BME280;11115;46.038;14.612;2023-12-07T08:24:44;98697.41;;;2.47;100.00
21902;BME280;11115;46.038;14.612;2023-12-07T08:27:22;98660.75;;;2.21;100.00
21902;BME280;11115;46.038;14.612;2023-12-07T08:29:51;98700.91;;;2.42;100.00
21902;BME280;11115;46.038;14.612;2023-12-07T08:32:19;98670.41;;;2.11;100.00
21902;BME280;11115;46.038;14.612;2023-12-07T08:34:48;98708.03;;;2.09;100.00
21902;BME280;11115;46.038;14.612;2023-12-07T08:37:16;98701.75;;;2.26;100.00
21902;BME280;11115;46.038;14.612;2023-12-07T08:39:45;98689.38;;;2.18;100.00
21902;BME280;11115;46.038;14.612;2023-12-07T08:42:13;98664.31;;;2.04;100.00
21902;BME280;11115;46.038;14.612;2023-12-07T08:44:42;98704.28;;;2.49;100.00
21902;BME280;11115;46.038;14.612;2023-12-07T08:47:11;98643.81;;;1.85;100.00
21902;BME280;11115;46.038;14.612;2023-12-07T08:49:39;98694.81;;;2.18;100.00
21902;BME280;11115;46.038;14.612;2023-12-07T08:52:07;98663.59;;;1.75;100.00
21902;BME280;11115;46.038;14.612;2023-12-07T08:54:55;98724.78;;;2.13;100.00
21902;BME280;11115;46.038;14.612;2023-12-07T08:57:23;98714.81;;;2.07;100.00
21902;BME280;11115;46.038;14.612;2023-12-07T08:59:52;98728.06;;;2.15;100.00
21902;BME280;11115;46.038;14.612;2023-12-07T09:02:21;98735.91;;;2.28;100.00
21902;BME280;11115;46.038;14.612;2023-12-07T09:05:04;98729.88;;;2.26;100.00
21902;BME280;11115;46.038;14.612;2023-12-07T09:07:32;98650.16;;;1.91;100.00
21902;BME280;11115;46.038;14.612;2023-12-07T09:10:00;98710.75;;;2.43;100.00
21902;BME280;11115;46.038;14.612;2023-12-07T09:12:29;98729.78;;;2.55;100.00
21902;BME280;11115;46.038;14.612;2023-12-07T09:15:05;98680.22;;;2.29;100.00
21902;BME280;11115;46.038;14.612;2023-12-07T09:17:34;98718.84;;;2.55;100.00
21902;BME280;11115;46.038;14.612;2023-12-07T09:20:11;98671.00;;;2.13;100.00
21902;BME280;11115;46.038;14.612;2023-12-07T09:22:42;98722.00;;;2.47;100.00
21902;BME280;11115;46.038;14.612;2023-12-07T09:25:12;98726.38;;;2.48;100.00
21902;BME280;11115;46.038;14.612;2023-12-07T09:27:40;98743.19;;;2.56;100.00
21902;BME280;11115;46.038;14.612;2023-12-07T09:30:09;98707.28;;;2.31;100.00
21902;BME280;11115;46.038;14.612;2023-12-07T09:32:40;98703.00;;;2.18;100.00
21902;BME280;11115;46.038;14.612;2023-12-07T09:35:11;98736.44;;;2.64;100.00
21902;BME280;11115;46.038;14.612;2023-12-07T09:37:42;98731.94;;;2.53;100.00
21902;BME280;11115;46.038;14.612;2023-12-07T09:40:18;98736.13;;;2.60;100.00
21902;BME280;11115;46.038;14.612;2023-12-07T09:42:48;98728.50;;;2.62;100.00
21902;BME280;11115;46.038;14.612;2023-12-07T09:45:18;98726.59;;;2.63;100.00
21902;BME280;11115;46.038;14.612;2023-12-07T09:47:52;98723.09;;;2.67;100.00
21902;BME280;11115;46.038;14.612;2023-12-07T09:50:23;98724.88;;;2.57;100.00
21902;BME280;11115;46.038;14.612;2023-12-07T09:52:56;98714.59;;;2.64;100.00
21902;BME280;11115;46.038;14.612;2023-12-07T09:55:34;98727.59;;;2.73;100.00
21902;BME280;11115;46.038;14.612;2023-12-07T09:58:05;98710.78;;;2.65;100.00
21902;BME280;11115;46.038;14.612;2023-12-07T10:00:36;98726.50;;;2.74;100.00
21902;BME280;11115;46.038;14.612;2023-12-07T10:03:06;98700.53;;;2.72;100.00
21902;BME280;11115;46.038;14.612;2023-12-07T10:05:58;98717.69;;;2.89;100.00
21902;BME280;11115;46.038;14.612;2023-12-07T10:08:32;98703.63;;;2.81;100.00
21902;BME280;11115;46.038;14.612;2023-12-07T10:11:07;98717.22;;;2.97;100.00
21902;BME280;11115;46.038;14.612;2023-12-07T10:13:36;98708.91;;;2.87;100.00
21902;BME280;11115;46.038;14.612;2023-12-07T10:16:15;98701.34;;;2.72;100.00
21902;BME280;11115;46.038;14.612;2023-12-07T10:18:44;98694.81;;;2.95;100.00
21902;BME280;11115;46.038;14.612;2023-12-07T10:21:13;98709.97;;;3.08;100.00
21902;BME280;11115;46.038;14.612;2023-12-07T10:23:42;98686.03;;;2.71;100.00
21902;BME280;11115;46.038;14.612;2023-12-07T10:26:16;98711.06;;;2.85;100.00
21902;BME280;11115;46.038;14.612;2023-12-07T10:28:51;98718.13;;;2.81;100.00
21902;BME280;11115;46.038;14.612;2023-12-07T10:31:22;98702.28;;;2.83;100.00
21902;BME280;11115;46.038;14.612;2023-12-07T10:33:51;98643.25;;;2.60;100.00
21902;BME280;11115;46.038;14.612;2023-12-07T10:36:20;98710.31;;;3.12;100.00
21902;BME280;11115;46.038;14.612;2023-12-07T10:38:48;98674.97;;;2.83;100.00
21902;BME280;11115;46.038;14.612;2023-12-07T10:41:23;98715.31;;;3.20;100.00
21902;BME280;11115;46.038;14.612;2023-12-07T10:43:59;98675.63;;;2.90;100.00
21902;BME280;11115;46.038;14.612;2023-12-07T10:46:29;98679.53;;;2.99;100.00
21902;BME280;11115;46.038;14.612;2023-12-07T10:49:05;98703.88;;;3.23;100.00
21902;BME280;11115;46.038;14.612;2023-12-07T10:51:58;98706.25;;;3.14;100.00
21902;BME280;11115;46.038;14.612;2023-12-07T10:54:39;98701.78;;;3.08;100.00
21902;BME280;11115;46.038;14.612;2023-12-07T10:57:11;98697.91;;;3.04;100.00
21902;BME280;11115;46.038;14.612;2023-12-07T10:59:42;98696.25;;;3.03;100.00
21902;BME280;11115;46.038;14.612;2023-12-07T11:02:12;98677.63;;;2.78;100.00
21902;BME280;11115;46.038;14.612;2023-12-07T11:04:45;98689.44;;;2.84;100.00
21902;BME280;11115;46.038;14.612;2023-12-07T11:07:16;98701.97;;;3.01;100.00
21902;BME280;11115;46.038;14.612;2023-12-07T11:09:55;98690.09;;;3.13;100.00
21902;BME280;11115;46.038;14.612;2023-12-07T11:15:12;98615.06;;;2.77;100.00
21902;BME280;11115;46.038;14.612;2023-12-07T11:17:49;98689.28;;;3.12;100.00
21902;BME280;11115;46.038;14.612;2023-12-07T11:20:19;98700.13;;;3.29;100.00
21902;BME280;11115;46.038;14.612;2023-12-07T11:22:49;98691.84;;;3.24;100.00
21902;BME280;11115;46.038;14.612;2023-12-07T11:25:19;98658.28;;;3.07;100.00
21902;BME280;11115;46.038;14.612;2023-12-07T11:27:47;98690.84;;;3.30;100.00
21902;BME280;11115;46.038;14.612;2023-12-07T11:30:17;98677.59;;;3.22;100.00
21902;BME280;11115;46.038;14.612;2023-12-07T11:32:45;98656.66;;;3.05;100.00
21902;BME280;11115;46.038;14.612;2023-12-07T11:35:14;98690.00;;;3.29;100.00
21902;BME280;11115;46.038;14.612;2023-12-07T11:40:38;98671.66;;;3.03;100.00
21902;BME280;11115;46.038;14.612;2023-12-07T11:43:16;98674.31;;;3.20;100.00
21902;BME280;11115;46.038;14.612;2023-12-07T11:45:48;98694.72;;;3.34;100.00
21902;BME280;11115;46.038;14.612;2023-12-07T11:48:18;98697.44;;;3.34;100.00
21902;BME280;11115;46.038;14.612;2023-12-07T11:51:02;98693.56;;;3.30;100.00
21902;BME280;11115;46.038;14.612;2023-12-07T11:53:32;98693.22;;;3.48;100.00
21902;BME280;11115;46.038;14.612;2023-12-07T11:56:05;98672.88;;;3.39;100.00
21902;BME280;11115;46.038;14.612;2023-12-07T11:58:35;98655.63;;;3.39;100.00
21902;BME280;11115;46.038;14.612;2023-12-07T12:01:07;98675.53;;;3.61;100.00
21902;BME280;11115;46.038;14.612;2023-12-07T12:03:36;98602.25;;;3.31;100.00
21902;BME280;11115;46.038;14.612;2023-12-07T12:06:06;98691.06;;;3.82;100.00
21902;BME280;11115;46.038;14.612;2023-12-07T12:08:40;98689.06;;;3.73;100.00
21902;BME280;11115;46.038;14.612;2023-12-07T12:11:10;98680.94;;;3.51;100.00
21902;BME280;11115;46.038;14.612;2023-12-07T12:13:38;98673.06;;;3.59;100.00
21902;BME280;11115;46.038;14.612;2023-12-07T12:16:07;98680.75;;;3.62;100.00
21902;BME280;11115;46.038;14.612;2023-12-07T12:18:36;98677.16;;;3.57;100.00
21902;BME280;11115;46.038;14.612;2023-12-07T12:21:07;98680.69;;;3.52;100.00
21902;BME280;11115;46.038;14.612;2023-12-07T12:23:36;98661.13;;;3.39;100.00
21902;BME280;11115;46.038;14.612;2023-12-07T12:26:05;98611.22;;;2.99;100.00
21902;BME280;11115;46.038;14.612;2023-12-07T12:28:33;98679.69;;;3.37;100.00
21902;BME280;11115;46.038;14.612;2023-12-07T12:31:04;98673.97;;;3.38;100.00
21902;BME280;11115;46.038;14.612;2023-12-07T12:33:36;98660.34;;;3.16;100.00
21902;BME280;11115;46.038;14.612;2023-12-07T12:36:05;98690.97;;;3.45;100.00
21902;BME280;11115;46.038;14.612;2023-12-07T12:38:34;98680.09;;;3.23;100.00
21902;BME280;11115;46.038;14.612;2023-12-07T12:41:10;98694.75;;;3.39;100.00
21902;BME280;11115;46.038;14.612;2023-12-07T12:43:38;98698.78;;;3.31;100.00
21902;BME280;11115;46.038;14.612;2023-12-07T12:46:07;98696.88;;;3.32;100.00
21902;BME280;11115;46.038;14.612;2023-12-07T12:48:52;98705.59;;;3.29;100.00
21902;BME280;11115;46.038;14.612;2023-12-07T12:51:22;98672.88;;;3.12;100.00
21902;BME280;11115;46.038;14.612;2023-12-07T12:53:51;98685.25;;;3.20;100.00
21902;BME280;11115;46.038;14.612;2023-12-07T12:56:20;98706.81;;;3.43;100.00
21902;BME280;11115;46.038;14.612;2023-12-07T12:58:49;98705.13;;;3.37;100.00
21902;BME280;11115;46.038;14.612;2023-12-07T13:01:18;98674.31;;;3.20;100.00
21902;BME280;11115;46.038;14.612;2023-12-07T13:03:47;98686.03;;;3.15;100.00
21902;BME280;11115;46.038;14.612;2023-12-07T13:06:17;98714.69;;;3.34;100.00
21902;BME280;11115;46.038;14.612;2023-12-07T13:08:46;98707.03;;;3.37;100.00
21902;BME280;11115;46.038;14.612;2023-12-07T13:11:16;98708.56;;;3.27;100.00